Airfield :
LOGIN :

Register | Disclaimer

   EN    FR    IT 

 










Legend :    VFR   Marginal VFR   IFR   Intensive IFR   Very Intensive IFR
Visi :
Ceiling :
>= 8 km
>= 3000ft
5 to 8 km
1000 to 3000 ft
1500m to 5 km
500 to 1000 ft
800 to 1500m
200 to 500 ft
< 800m
< 200 ft
Symbols :   Thunderstorms  Fog  Heavy snow  Heavy precipitations  Wind > 20 kt
SIGMETs :     Misc.  Thunderstorms  Icing  Turbulence  Mountain Waves  Volcanic Ashes







- Airport Elevation : 408 ft
- IATA code : SOB


LHSM - Sarmellek Balaton

CURRENT METAR :
  • 241515Z 02003KT 9999 TS FEW040CB FEW043TCU BKN200 25/17 Q1016 TEMPO -TSRA SCT030CB

EXPIRED METARs :
  • 241445Z 36003KT 9999 VCSH FEW040CB FEW043TCU BKN200 24/17 Q1016 TEMPO -TSRA SCT030CB
  • 241345Z 02004KT 9999 FEW040CB SCT043TCU BKN200 25/17 Q1016 TEMPO -TSRA SCT030CB
  • 241315Z 26004KT 9999 VCSH FEW040CB SCT043TCU BKN200 26/16 Q1016 TEMPO -TSRA SCT030CB
  • 241245Z 00000KT 9999 VCSH FEW036CB SCT040TCU BKN200 27/16 Q1017 TEMPO -TSRA SCT030CB

TAF TAF LHSM
Valid from the 24 at 12:00 until the 24 at 21:00 UTC


241115Z 2412/2421 08005KT 9999 FEW040
TEMPO 2412/2421 VRB16G28KT 5000 SHRA TSRA SCT030CB BKN055
BECMG 2415/2418 35005KT
No reported NOTAMs for that airfield.
2 SIGMETs reported for the Budapest FIR (LHCC) :
 
Frequent thunderstorms
LHCC SIGMET 03 VALID 241600/241800 LHBP
LHCC BUDAPEST FIR FRQ TS FCST WI N4758 E01845 - N4708 E02100 - N4606 E01947 - N4729 E01750 - N4758 E01845 TOP FL390 STNR INTSF=
Frequent thunderstorms
LHCC SIGMET 02 VALID 241415/241600 LHBP
LHCC BUDAPEST FIR FRQ TS FCST WI N4545 E01808 - N4647 E01700 - N4715 E01821 - N4554 E01858 - N4545 E01808 AND WI N4604 E01929 - N4746 E02036 - N4720 E02156 - N4610 E02105 - N4604 E01929 TOP FL390 STNR INTSF=



MET'MAP, your aeronautical weather chart ! - Copyright ORBIFLY December 2007 - Disclaimer

ORBIFLY MET'MAP TEAM :

Programming & Development : Alexandra Zaïnal
Concept & Development : Baudouin d'Aumeries
Co-Development & Prog : Marc-Olivier Méhu
Technical & hardware support : Manuel Goepfert

Contact : metmap@orbifly.com




SOURCES & CREDITS :

   NOAA